createdAt,value
2023-02-17T00:01:26.483Z,56.45
2023-02-17T00:03:54.350Z,58.50
2023-02-17T00:06:25.157Z,56.20
2023-02-17T00:08:53.124Z,57.92
2023-02-17T00:11:21.681Z,56.42
2023-02-17T00:13:48.967Z,53.65
2023-02-17T00:16:21.899Z,64.72
2023-02-17T00:18:54.057Z,66.07
2023-02-17T00:21:24.006Z,59.15
2023-02-17T00:23:52.038Z,59.03
2023-02-17T00:26:20.421Z,56.90
2023-02-17T00:28:49.052Z,54.95
2023-02-17T00:31:19.043Z,55.53
2023-02-17T00:33:46.651Z,55.03
2023-02-17T00:36:18.044Z,54.63
2023-02-17T00:38:45.808Z,54.80
2023-02-17T00:41:13.173Z,58.70
2023-02-17T00:43:40.561Z,59.35
2023-02-17T00:46:08.227Z,60.13
2023-02-17T00:48:35.817Z,58.70
2023-02-17T00:51:03.761Z,56.60
2023-02-17T00:53:31.319Z,57.38
2023-02-17T00:56:01.889Z,58.60
2023-02-17T00:58:29.333Z,59.90
2023-02-17T01:00:58.329Z,62.53
2023-02-17T01:03:27.044Z,65.25
2023-02-17T01:05:55.928Z,66.20
2023-02-17T01:08:24.690Z,59.92
2023-02-17T01:10:53.329Z,59.00
2023-02-17T01:13:20.718Z,57.47
2023-02-17T01:15:52.614Z,63.42
2023-02-17T01:18:23.791Z,63.13
2023-02-17T01:20:52.383Z,63.03
2023-02-17T01:23:19.704Z,62.15
2023-02-17T01:25:47.732Z,58.50
2023-02-17T01:28:20.788Z,65.20
2023-02-17T01:30:48.905Z,61.55
2023-02-17T01:33:16.344Z,63.40
2023-02-17T01:35:43.870Z,63.63
2023-02-17T01:38:12.969Z,69.38
2023-02-17T01:40:47.674Z,66.18
2023-02-17T01:43:18.243Z,60.20
2023-02-17T01:45:52.773Z,62.08
2023-02-17T01:48:25.664Z,60.22
2023-02-17T01:51:03.279Z,62.05
2023-02-17T01:53:37.505Z,69.00
2023-02-17T01:56:06.440Z,63.88
2023-02-17T01:58:34.622Z,64.15
2023-02-17T02:01:05.451Z,62.20
2023-02-17T02:03:35.175Z,60.45
2023-02-17T02:06:07.616Z,65.82
2023-02-17T02:08:44.987Z,62.33
2023-02-17T02:11:12.624Z,59.22
2023-02-17T02:13:40.180Z,63.28
2023-02-17T02:16:22.093Z,62.65
2023-02-17T02:19:04.844Z,62.35
2023-02-17T02:21:48.958Z,61.40
2023-02-17T02:24:40.523Z,65.93
2023-02-17T02:27:26.534Z,59.80
2023-02-17T02:30:02.691Z,65.95
2023-02-17T02:32:46.608Z,59.28
2023-02-17T02:35:21.577Z,62.25
2023-02-17T02:38:04.927Z,64.32
2023-02-17T02:40:37.792Z,61.20
2023-02-17T02:43:06.023Z,63.55
2023-02-17T02:45:35.184Z,58.33
2023-02-17T02:48:02.948Z,62.80
2023-02-17T02:50:30.940Z,56.00
2023-02-17T02:53:11.306Z,56.63
2023-02-17T02:56:06.871Z,56.42
2023-02-17T02:59:01.545Z,58.28
2023-02-17T03:01:52.178Z,58.90
2023-02-17T03:04:26.854Z,62.78
2023-02-17T03:07:02.234Z,56.15
2023-02-17T03:09:30.326Z,57.30
2023-02-17T03:11:58.675Z,56.28
2023-02-17T03:14:27.612Z,56.92
2023-02-17T03:16:55.798Z,57.63
2023-02-17T03:19:26.310Z,54.80
2023-02-17T03:22:06.034Z,57.60
2023-02-17T03:24:35.139Z,53.30
2023-02-17T03:27:02.502Z,54.00
2023-02-17T03:29:30.010Z,56.03
2023-02-17T03:31:57.719Z,59.88
2023-02-17T03:34:25.151Z,53.88
2023-02-17T03:36:52.394Z,51.97
2023-02-17T03:39:19.682Z,53.88
2023-02-17T03:41:48.464Z,54.22
2023-02-17T03:44:15.754Z,53.30
2023-02-17T03:46:43.008Z,51.17
2023-02-17T03:49:12.157Z,48.60
2023-02-17T03:51:40.441Z,52.50
2023-02-17T03:54:07.953Z,48.83
2023-02-17T03:56:35.164Z,49.40
2023-02-17T03:59:02.575Z,50.67
2023-02-17T04:01:30.392Z,58.00
2023-02-17T04:03:57.848Z,52.72
2023-02-17T04:06:25.346Z,48.08
2023-02-17T04:08:52.776Z,46.85
2023-02-17T04:11:20.111Z,50.08
2023-02-17T04:13:47.655Z,51.30
2023-02-17T04:16:14.818Z,47.60
2023-02-17T04:18:42.169Z,52.97
2023-02-17T04:21:09.557Z,50.78
2023-02-17T04:23:37.446Z,47.90
2023-02-17T04:26:07.345Z,51.40
2023-02-17T04:28:37.868Z,46.95
2023-02-17T04:31:05.637Z,49.10
2023-02-17T04:33:33.128Z,49.08
2023-02-17T04:36:00.437Z,48.47
2023-02-17T04:38:29.290Z,48.72
2023-02-17T04:40:57.634Z,45.05
2023-02-17T04:43:26.548Z,48.47
2023-02-17T04:45:54.857Z,47.97
2023-02-17T04:48:22.945Z,49.50
2023-02-17T04:50:50.510Z,48.00
2023-02-17T04:53:18.531Z,47.40
2023-02-17T04:55:49.756Z,47.95
2023-02-17T04:58:17.430Z,48.78
2023-02-17T05:00:46.463Z,48.60
2023-02-17T05:03:13.903Z,52.85
2023-02-17T05:05:41.395Z,51.25
2023-02-17T05:08:08.849Z,49.50
2023-02-17T05:10:36.314Z,48.67
2023-02-17T05:13:03.669Z,51.13
2023-02-17T05:15:33.089Z,50.35
2023-02-17T05:18:01.778Z,49.25
2023-02-17T05:20:29.441Z,48.47
2023-02-17T05:22:56.789Z,52.42
2023-02-17T05:25:24.190Z,52.85
2023-02-17T05:27:51.381Z,52.78
2023-02-17T05:30:19.005Z,56.90
2023-02-17T05:32:46.679Z,54.08
2023-02-17T05:35:13.974Z,51.70
2023-02-17T05:37:41.387Z,55.92
2023-02-17T05:40:09.368Z,53.47
2023-02-17T05:42:36.851Z,51.63
2023-02-17T05:45:05.095Z,55.05
2023-02-17T05:47:32.584Z,57.92
2023-02-17T05:49:59.716Z,55.45
2023-02-17T05:52:27.189Z,58.63
2023-02-17T05:54:54.549Z,52.42
2023-02-17T05:57:21.797Z,55.20
2023-02-17T05:59:49.104Z,55.42
2023-02-17T06:02:16.524Z,54.42
2023-02-17T06:04:43.993Z,52.35
2023-02-17T06:07:11.532Z,53.75
2023-02-17T06:09:38.944Z,54.03
2023-02-17T06:12:06.553Z,54.47
2023-02-17T06:14:33.990Z,52.35
2023-02-17T06:17:04.202Z,56.42
2023-02-17T06:21:58.790Z,51.05
2023-02-17T06:24:26.249Z,51.03
2023-02-17T06:26:53.458Z,51.53
2023-02-17T06:29:20.660Z,52.22
2023-02-17T06:31:48.047Z,50.80
2023-02-17T06:34:15.566Z,50.05
2023-02-17T06:36:43.094Z,52.65
2023-02-17T06:39:10.702Z,49.75
2023-02-17T06:41:37.977Z,46.53
2023-02-17T06:44:05.381Z,51.00
2023-02-17T06:46:32.723Z,48.03
2023-02-17T06:49:01.680Z,53.92
2023-02-17T06:51:29.422Z,52.95
2023-02-17T06:53:57.084Z,51.60
2023-02-17T06:56:24.422Z,48.65
2023-02-17T06:58:52.292Z,55.47
2023-02-17T07:01:23.399Z,54.25
2023-02-17T07:03:50.985Z,53.40
2023-02-17T07:06:18.657Z,54.63
2023-02-17T07:08:46.497Z,60.85
2023-02-17T07:11:15.179Z,57.28
2023-02-17T07:13:43.024Z,56.58
2023-02-17T07:16:12.359Z,53.03
2023-02-17T07:18:40.254Z,53.40
2023-02-17T07:21:09.320Z,53.22
2023-02-17T07:23:37.420Z,55.92
2023-02-17T07:26:10.158Z,53.47
2023-02-17T07:28:39.579Z,57.38
2023-02-17T07:31:09.681Z,58.13
2023-02-17T07:33:37.751Z,57.22
2023-02-17T07:36:13.177Z,55.58
2023-02-17T07:38:41.071Z,60.40
2023-02-17T07:41:16.937Z,61.97
2023-02-17T07:43:45.259Z,58.70
2023-02-17T07:46:13.370Z,65.40
2023-02-17T07:48:41.496Z,67.78
2023-02-17T07:51:11.697Z,75.50
2023-02-17T07:56:09.966Z,75.15
2023-02-17T07:58:39.591Z,70.15
2023-02-17T08:01:12.697Z,77.88
2023-02-17T08:03:40.598Z,84.65
2023-02-17T08:06:19.173Z,75.68
2023-02-17T08:09:06.297Z,85.95
2023-02-17T08:11:52.551Z,91.95
2023-02-17T08:14:22.845Z,82.72
2023-02-17T08:16:50.689Z,79.60
2023-02-17T08:19:18.340Z,82.07
2023-02-17T08:21:46.275Z,76.70
2023-02-17T08:24:13.910Z,75.93
2023-02-17T08:26:41.156Z,88.20
2023-02-17T08:29:08.860Z,80.03
2023-02-17T08:31:37.768Z,95.28
2023-02-17T08:34:08.320Z,81.57
2023-02-17T08:36:37.772Z,79.25
2023-02-17T08:39:07.040Z,80.50
2023-02-17T08:41:37.460Z,84.80
2023-02-17T08:44:11.838Z,89.55
2023-02-17T08:46:39.397Z,89.35
2023-02-17T08:49:07.605Z,79.63
2023-02-17T08:51:35.427Z,93.53
2023-02-17T08:54:06.664Z,87.38
2023-02-17T08:56:35.126Z,89.15
2023-02-17T08:59:02.864Z,91.28
2023-02-17T09:01:31.001Z,86.85
2023-02-17T09:04:00.167Z,86.75
2023-02-17T09:06:39.652Z,90.10
2023-02-17T09:09:09.461Z,91.40
2023-02-17T09:11:36.963Z,92.68
2023-02-17T09:14:05.049Z,87.38
2023-02-17T09:16:32.443Z,88.55
2023-02-17T09:18:59.763Z,82.95
2023-02-17T09:21:27.114Z,89.68
2023-02-17T09:23:54.632Z,98.30
2023-02-17T09:26:22.466Z,88.70
2023-02-17T09:28:50.293Z,89.63
2023-02-17T09:31:20.547Z,85.65
2023-02-17T09:33:49.347Z,84.55
2023-02-17T09:36:20.507Z,86.47
2023-02-17T09:38:48.462Z,81.18
2023-02-17T09:41:43.532Z,87.03
2023-02-17T09:44:41.473Z,83.88
2023-02-17T09:47:15.671Z,90.10
2023-02-17T09:49:57.670Z,91.85
2023-02-17T09:52:36.311Z,84.53
2023-02-17T09:55:13.950Z,87.03
2023-02-17T09:57:51.880Z,87.03
2023-02-17T10:00:29.721Z,92.63
2023-02-17T10:03:25.810Z,89.15
2023-02-17T10:06:30.816Z,87.65
2023-02-17T10:09:23.167Z,101.68
2023-02-17T10:12:21.073Z,95.90
2023-02-17T10:15:25.607Z,86.40
2023-02-17T10:18:05.007Z,93.30
2023-02-17T10:20:36.870Z,86.30
2023-02-17T10:23:30.421Z,93.10
2023-02-17T10:26:14.722Z,101.05
2023-02-17T10:28:52.176Z,100.60
2023-02-17T10:32:22.572Z,88.13
2023-02-17T10:35:11.520Z,96.28
2023-02-17T10:37:48.663Z,79.60
2023-02-17T10:40:25.680Z,91.28
2023-02-17T10:43:01.908Z,85.72
2023-02-17T10:45:38.095Z,88.72
2023-02-17T10:48:16.446Z,76.65
2023-02-17T10:50:46.532Z,82.38
2023-02-17T10:53:31.836Z,82.95
2023-02-17T10:56:02.666Z,69.78
2023-02-17T10:58:35.835Z,74.60
2023-02-17T11:01:05.667Z,77.43
2023-02-17T11:03:34.487Z,77.53
2023-02-17T11:06:04.869Z,71.65
2023-02-17T11:08:41.329Z,63.78
2023-02-17T11:11:27.100Z,63.35
2023-02-17T11:14:09.948Z,63.58
2023-02-17T11:16:47.462Z,65.13
2023-02-17T11:19:40.958Z,65.55
2023-02-17T11:22:41.051Z,68.78
2023-02-17T11:25:25.938Z,69.78
2023-02-17T11:27:59.635Z,70.05
2023-02-17T11:30:29.152Z,75.70
2023-02-17T11:32:56.958Z,68.60
2023-02-17T11:35:29.861Z,69.35
2023-02-17T11:38:25.977Z,83.30
2023-02-17T11:40:59.530Z,79.57
2023-02-17T11:43:29.142Z,81.03
2023-02-17T11:46:19.947Z,76.75
2023-02-17T11:49:09.075Z,79.22
2023-02-17T11:52:14.806Z,78.93
2023-02-17T11:55:09.356Z,76.35
2023-02-17T11:57:45.700Z,100.18
2023-02-17T12:00:20.259Z,82.72
2023-02-17T12:03:36.619Z,76.03
2023-02-17T12:06:43.197Z,84.57
2023-02-17T12:09:55.706Z,79.80
2023-02-17T12:12:40.995Z,82.22
2023-02-17T12:15:50.112Z,82.65
2023-02-17T12:18:34.728Z,93.07
2023-02-17T12:21:19.876Z,86.72
2023-02-17T12:24:31.680Z,107.63
2023-02-17T12:27:09.301Z,87.55
2023-02-17T12:30:07.906Z,90.45
2023-02-17T12:33:08.418Z,81.97
2023-02-17T12:35:53.374Z,85.80
2023-02-17T12:38:46.982Z,85.47
2023-02-17T12:41:23.372Z,77.82
2023-02-17T12:43:58.890Z,85.75
2023-02-17T12:46:33.029Z,95.22
2023-02-17T12:49:07.668Z,89.53
2023-02-17T12:52:11.310Z,78.55
2023-02-17T12:54:45.750Z,74.93
2023-02-17T12:57:13.563Z,77.22
2023-02-17T12:59:47.388Z,81.63
2023-02-17T13:02:21.670Z,78.82
2023-02-17T13:04:57.896Z,85.88
2023-02-17T13:08:07.742Z,72.30
2023-02-17T13:10:37.728Z,85.15
2023-02-17T13:13:07.136Z,79.28
2023-02-17T13:15:38.646Z,65.43
2023-02-17T13:18:30.223Z,75.03
2023-02-17T13:21:20.831Z,80.90
2023-02-17T13:24:09.242Z,70.70
2023-02-17T13:26:46.457Z,69.57
2023-02-17T13:29:25.599Z,72.05
2023-02-17T13:31:59.149Z,69.40
2023-02-17T13:34:36.684Z,64.63
2023-02-17T13:37:17.979Z,68.57
2023-02-17T13:39:46.299Z,66.93
2023-02-17T13:42:32.035Z,66.88
2023-02-17T13:44:59.903Z,67.18
2023-02-17T13:47:37.615Z,66.28
2023-02-17T13:50:06.123Z,69.55
2023-02-17T13:52:34.196Z,68.20
2023-02-17T13:55:05.188Z,63.28
2023-02-17T13:57:34.694Z,70.07
2023-02-17T14:00:20.809Z,69.05
2023-02-17T14:02:55.167Z,57.88
2023-02-17T14:05:30.996Z,52.90
2023-02-17T14:08:05.697Z,57.25
2023-02-17T14:10:33.631Z,56.95
2023-02-17T14:13:01.183Z,48.88
2023-02-17T14:15:29.802Z,50.35
2023-02-17T14:17:57.375Z,58.63
2023-02-17T14:20:43.026Z,60.97
2023-02-17T14:23:13.259Z,66.20
2023-02-17T14:28:27.498Z,57.50
2023-02-17T14:30:54.999Z,56.95
2023-02-17T14:33:25.955Z,50.38
2023-02-17T14:36:06.543Z,59.10
2023-02-17T14:38:37.953Z,60.38
2023-02-17T14:41:06.847Z,53.22
2023-02-17T14:43:34.323Z,52.05
2023-02-17T14:46:01.840Z,57.20
2023-02-17T14:48:29.175Z,55.67
2023-02-17T14:50:59.544Z,47.17
2023-02-17T14:53:40.741Z,49.70
2023-02-17T14:56:15.543Z,60.30
2023-02-17T14:58:43.424Z,56.00
2023-02-17T15:01:14.127Z,51.90
2023-02-17T15:03:41.569Z,54.75
2023-02-17T15:06:18.422Z,46.70
2023-02-17T15:08:48.085Z,48.13
2023-02-17T15:11:26.645Z,42.38
2023-02-17T15:13:54.269Z,53.47
2023-02-17T15:16:21.597Z,48.42
2023-02-17T15:18:51.220Z,49.35
2023-02-17T15:21:27.817Z,48.47
2023-02-17T15:23:57.107Z,55.55
2023-02-17T15:26:25.343Z,43.08
2023-02-17T15:28:53.782Z,47.63
2023-02-17T15:31:21.924Z,44.75
2023-02-17T15:33:58.271Z,37.38
2023-02-17T15:36:27.512Z,51.13
2023-02-17T15:38:56.832Z,43.40
2023-02-17T15:41:26.642Z,47.10
2023-02-17T15:43:58.076Z,43.45
2023-02-17T15:46:33.148Z,50.90
2023-02-17T15:49:01.512Z,48.03
2023-02-17T15:51:29.432Z,42.47
2023-02-17T15:53:57.053Z,50.10
2023-02-17T15:56:30.840Z,44.60
2023-02-17T15:59:05.099Z,51.90
2023-02-17T16:01:34.761Z,51.78
2023-02-17T16:04:03.779Z,44.03
2023-02-17T16:06:31.680Z,47.33
2023-02-17T16:09:00.173Z,57.78
2023-02-17T16:11:28.484Z,52.17
2023-02-17T16:13:57.693Z,56.60
2023-02-17T16:16:30.087Z,49.88
2023-02-17T16:18:58.350Z,46.03
2023-02-17T16:21:26.889Z,49.85
2023-02-17T16:24:00.922Z,54.10
2023-02-17T16:26:34.183Z,51.58
2023-02-17T16:29:04.932Z,51.20
2023-02-17T16:31:33.124Z,58.70
2023-02-17T16:34:01.103Z,52.90
2023-02-17T16:36:34.424Z,52.08
2023-02-17T16:39:11.339Z,59.67
2023-02-17T16:41:39.886Z,55.72
2023-02-17T16:44:08.812Z,61.25
2023-02-17T16:46:37.815Z,56.28
2023-02-17T16:49:24.190Z,71.07
2023-02-17T16:51:52.985Z,56.40
2023-02-17T16:54:20.944Z,59.65
2023-02-17T16:56:51.503Z,57.20
2023-02-17T16:59:22.785Z,51.67
2023-02-17T17:01:53.623Z,58.15
2023-02-17T17:04:22.996Z,61.25
2023-02-17T17:06:53.020Z,49.67
2023-02-17T17:09:26.192Z,56.83
2023-02-17T17:11:54.310Z,52.55
2023-02-17T17:14:22.066Z,57.30
2023-02-17T17:16:58.272Z,52.85
2023-02-17T17:19:26.685Z,48.83
2023-02-17T17:21:54.730Z,48.80
2023-02-17T17:24:23.053Z,49.85
2023-02-17T17:26:52.280Z,48.00
2023-02-17T17:29:21.352Z,53.42
2023-02-17T17:31:49.468Z,49.30
2023-02-17T17:34:17.612Z,49.72
2023-02-17T17:36:48.092Z,44.25
2023-02-17T17:39:17.359Z,44.03
2023-02-17T17:41:46.363Z,47.55
2023-02-17T17:44:15.102Z,41.83
2023-02-17T17:46:43.853Z,41.58
2023-02-17T17:49:15.705Z,38.67
2023-02-17T17:51:44.212Z,37.88
2023-02-17T17:54:12.672Z,38.42
2023-02-17T17:56:46.061Z,42.25
2023-02-17T17:59:15.427Z,38.10
2023-02-17T18:01:45.555Z,41.03
2023-02-17T18:04:14.570Z,36.42
2023-02-17T18:06:46.838Z,36.90
2023-02-17T18:09:32.111Z,32.10
2023-02-17T18:12:08.146Z,29.27
2023-02-17T18:14:38.807Z,36.05
2023-02-17T18:17:09.803Z,36.25
2023-02-17T18:19:38.833Z,31.42
2023-02-17T18:22:07.945Z,28.67
2023-02-17T18:24:35.905Z,31.77
2023-02-17T18:27:03.957Z,26.13
2023-02-17T18:29:32.068Z,27.55
2023-02-17T18:32:00.655Z,28.45
2023-02-17T18:34:28.687Z,29.00
2023-02-17T18:36:56.630Z,28.48
2023-02-17T18:39:24.929Z,25.52
2023-02-17T18:41:52.706Z,26.80
2023-02-17T18:44:20.629Z,23.98
2023-02-17T18:46:49.058Z,22.90
2023-02-17T18:49:17.400Z,20.77
2023-02-17T18:51:45.488Z,21.20
2023-02-17T18:54:13.793Z,20.00
2023-02-17T18:56:41.908Z,22.52
2023-02-17T18:59:09.965Z,22.58
2023-02-17T19:01:40.433Z,15.48
2023-02-17T19:06:38.275Z,16.00
2023-02-17T19:09:06.778Z,14.48
2023-02-17T19:11:35.730Z,14.00
2023-02-17T19:14:04.204Z,13.55
2023-02-17T19:16:32.943Z,12.77
2023-02-17T19:19:02.029Z,12.75
2023-02-17T19:21:30.124Z,12.30
2023-02-17T19:23:58.003Z,12.13
2023-02-17T19:26:26.142Z,11.15
2023-02-17T19:28:54.476Z,12.93
2023-02-17T19:31:22.705Z,11.18
2023-02-17T19:33:51.062Z,11.23
2023-02-17T19:36:21.815Z,12.52
2023-02-17T19:38:51.484Z,12.48
2023-02-17T19:41:20.526Z,13.13
2023-02-17T19:43:48.956Z,10.70
2023-02-17T19:46:20.235Z,12.93
2023-02-17T19:48:48.417Z,11.95
2023-02-17T19:51:17.158Z,11.65
2023-02-17T19:53:45.266Z,12.93
2023-02-17T19:56:16.379Z,11.52
2023-02-17T19:58:46.160Z,9.77
2023-02-17T20:01:23.405Z,7.60
2023-02-17T20:03:52.770Z,7.22
2023-02-17T20:06:27.087Z,4.40
2023-02-17T20:09:06.757Z,5.88
2023-02-17T20:11:35.006Z,5.03
2023-02-17T20:14:04.109Z,6.03
2023-02-17T20:16:32.777Z,5.72
2023-02-17T20:19:03.058Z,5.68
2023-02-17T20:21:32.630Z,7.32
2023-02-17T20:24:00.803Z,4.40
2023-02-17T20:26:32.240Z,3.50
2023-02-17T20:29:00.951Z,4.47
2023-02-17T20:31:29.408Z,7.00
2023-02-17T20:33:57.461Z,3.55
2023-02-17T20:36:25.681Z,8.38
2023-02-17T20:38:53.808Z,7.10
2023-02-17T20:41:24.048Z,5.38
2023-02-17T20:43:52.929Z,6.13
2023-02-17T20:46:27.455Z,5.50
2023-02-17T20:48:55.877Z,5.47
2023-02-17T20:51:24.085Z,9.77
2023-02-17T20:53:52.314Z,6.93
2023-02-17T20:56:22.991Z,8.27
2023-02-17T20:58:51.081Z,8.98
2023-02-17T21:01:18.446Z,9.00
2023-02-17T21:03:45.888Z,6.90
2023-02-17T21:06:23.194Z,6.93
2023-02-17T21:08:53.011Z,6.88
2023-02-17T21:11:20.615Z,8.10
2023-02-17T21:13:48.161Z,7.50
2023-02-17T21:16:17.840Z,6.70
2023-02-17T21:18:46.958Z,11.77
2023-02-17T21:21:15.524Z,9.43
2023-02-17T21:23:43.148Z,8.85
2023-02-17T21:26:13.286Z,7.95
2023-02-17T21:28:40.901Z,9.60
2023-02-17T21:31:08.360Z,5.53
2023-02-17T21:33:42.075Z,9.88
2023-02-17T21:36:11.580Z,10.93
2023-02-17T21:38:39.383Z,12.70
2023-02-17T21:41:11.312Z,10.02
2023-02-17T21:43:57.874Z,10.73
2023-02-17T21:46:26.548Z,10.38
2023-02-17T21:48:53.859Z,9.35
2023-02-17T21:51:21.295Z,9.68
2023-02-17T21:53:48.800Z,9.60
2023-02-17T21:56:16.769Z,10.07
2023-02-17T21:58:52.248Z,10.88
2023-02-17T22:01:21.339Z,10.50
2023-02-17T22:03:48.667Z,10.38
2023-02-17T22:06:22.703Z,16.65
2023-02-17T22:08:50.053Z,12.95
2023-02-17T22:11:23.322Z,12.85
2023-02-17T22:13:54.751Z,13.55
2023-02-17T22:16:22.654Z,19.10
2023-02-17T22:18:50.487Z,12.48
2023-02-17T22:21:18.519Z,11.80
2023-02-17T22:23:46.056Z,14.88
2023-02-17T22:26:17.226Z,13.10
2023-02-17T22:28:44.504Z,13.10
2023-02-17T22:31:21.183Z,11.57
2023-02-17T22:33:49.374Z,9.52
2023-02-17T22:36:23.163Z,13.45
2023-02-17T22:38:52.897Z,12.43
2023-02-17T22:41:23.098Z,10.07
2023-02-17T22:46:22.902Z,17.95
2023-02-17T22:48:52.726Z,12.82
2023-02-17T22:51:23.152Z,10.18
2023-02-17T22:53:51.062Z,11.80
2023-02-17T22:56:19.290Z,21.27
2023-02-17T22:58:47.029Z,18.05
2023-02-17T23:01:19.603Z,13.30
2023-02-17T23:03:52.923Z,15.80
2023-02-17T23:06:26.853Z,16.40
2023-02-17T23:08:54.744Z,15.90
2023-02-17T23:11:44.314Z,15.48
2023-02-17T23:14:13.622Z,13.93
2023-02-17T23:16:41.321Z,14.33
2023-02-17T23:19:11.198Z,14.23
2023-02-17T23:21:42.379Z,9.02
2023-02-17T23:24:09.842Z,12.85
2023-02-17T23:26:37.220Z,12.43
2023-02-17T23:29:04.725Z,13.60
2023-02-17T23:31:32.203Z,15.73
2023-02-17T23:33:59.831Z,7.88
2023-02-17T23:36:27.374Z,12.75
2023-02-17T23:38:56.060Z,11.20
2023-02-17T23:41:23.502Z,9.30
2023-02-17T23:43:51.044Z,12.75
2023-02-17T23:46:18.772Z,12.68
2023-02-17T23:48:46.277Z,9.05
2023-02-17T23:51:16.848Z,15.52
2023-02-17T23:53:44.856Z,11.77
2023-02-17T23:56:31.820Z,12.13
2023-02-17T23:58:59.917Z,14.40
